sensor_id;sensor_type;location;lat;lon;timestamp;P1;durP1;ratioP1;P2;durP2;ratioP2
2598;SDS011;1309;48.810;8.954;2023-02-28T00:00:39;4.37;;;2.53;;
2598;SDS011;1309;48.810;8.954;2023-02-28T00:03:08;3.27;;;1.87;;
2598;SDS011;1309;48.810;8.954;2023-02-28T00:05:39;4.40;;;2.30;;
2598;SDS011;1309;48.810;8.954;2023-02-28T00:08:11;3.67;;;2.20;;
2598;SDS011;1309;48.810;8.954;2023-02-28T00:10:42;4.23;;;1.90;;
2598;SDS011;1309;48.810;8.954;2023-02-28T00:13:10;3.40;;;2.60;;
2598;SDS011;1309;48.810;8.954;2023-02-28T00:15:40;6.63;;;2.43;;
2598;SDS011;1309;48.810;8.954;2023-02-28T00:18:12;3.47;;;1.93;;
2598;SDS011;1309;48.810;8.954;2023-02-28T00:20:41;5.10;;;2.20;;
2598;SDS011;1309;48.810;8.954;2023-02-28T00:23:10;2.77;;;1.90;;
2598;SDS011;1309;48.810;8.954;2023-02-28T00:25:39;3.43;;;2.20;;
2598;SDS011;1309;48.810;8.954;2023-02-28T00:28:11;9.23;;;2.80;;
2598;SDS011;1309;48.810;8.954;2023-02-28T00:30:39;4.00;;;2.40;;
2598;SDS011;1309;48.810;8.954;2023-02-28T00:33:07;5.27;;;2.13;;
2598;SDS011;1309;48.810;8.954;2023-02-28T00:35:38;5.63;;;2.70;;
2598;SDS011;1309;48.810;8.954;2023-02-28T00:38:14;3.90;;;2.20;;
2598;SDS011;1309;48.810;8.954;2023-02-28T00:40:44;5.80;;;1.90;;
2598;SDS011;1309;48.810;8.954;2023-02-28T00:43:14;3.27;;;2.30;;
2598;SDS011;1309;48.810;8.954;2023-02-28T00:45:45;2.37;;;1.43;;
2598;SDS011;1309;48.810;8.954;2023-02-28T00:48:15;5.20;;;2.43;;
2598;SDS011;1309;48.810;8.954;2023-02-28T00:50:48;5.20;;;3.03;;
2598;SDS011;1309;48.810;8.954;2023-02-28T00:53:15;3.70;;;2.47;;
2598;SDS011;1309;48.810;8.954;2023-02-28T00:55:47;4.60;;;2.70;;
2598;SDS011;1309;48.810;8.954;2023-02-28T00:58:18;5.30;;;3.37;;
2598;SDS011;1309;48.810;8.954;2023-02-28T01:00:47;4.20;;;2.43;;
2598;SDS011;1309;48.810;8.954;2023-02-28T01:03:15;3.10;;;1.70;;
2598;SDS011;1309;48.810;8.954;2023-02-28T01:05:47;5.07;;;3.00;;
2598;SDS011;1309;48.810;8.954;2023-02-28T01:08:16;4.80;;;2.37;;
2598;SDS011;1309;48.810;8.954;2023-02-28T01:10:51;4.20;;;2.83;;
2598;SDS011;1309;48.810;8.954;2023-02-28T01:13:23;5.27;;;3.03;;
2598;SDS011;1309;48.810;8.954;2023-02-28T01:15:52;4.77;;;2.87;;
2598;SDS011;1309;48.810;8.954;2023-02-28T01:18:26;3.77;;;2.43;;
2598;SDS011;1309;48.810;8.954;2023-02-28T01:20:54;9.87;;;2.70;;
2598;SDS011;1309;48.810;8.954;2023-02-28T01:23:24;4.67;;;2.60;;
2598;SDS011;1309;48.810;8.954;2023-02-28T01:25:56;3.93;;;2.90;;
2598;SDS011;1309;48.810;8.954;2023-02-28T01:28:23;4.47;;;2.73;;
2598;SDS011;1309;48.810;8.954;2023-02-28T01:31:14;4.70;;;2.70;;
2598;SDS011;1309;48.810;8.954;2023-02-28T01:33:44;5.27;;;2.53;;
2598;SDS011;1309;48.810;8.954;2023-02-28T01:36:13;5.60;;;3.13;;
2598;SDS011;1309;48.810;8.954;2023-02-28T01:39:02;7.90;;;2.50;;
2598;SDS011;1309;48.810;8.954;2023-02-28T01:41:33;6.37;;;3.90;;
2598;SDS011;1309;48.810;8.954;2023-02-28T01:44:07;3.20;;;2.20;;
2598;SDS011;1309;48.810;8.954;2023-02-28T01:46:50;3.57;;;2.50;;
2598;SDS011;1309;48.810;8.954;2023-02-28T01:49:21;3.73;;;2.73;;
2598;SDS011;1309;48.810;8.954;2023-02-28T01:51:50;5.20;;;2.70;;
2598;SDS011;1309;48.810;8.954;2023-02-28T01:54:23;5.07;;;3.13;;
2598;SDS011;1309;48.810;8.954;2023-02-28T01:56:54;4.53;;;2.77;;
2598;SDS011;1309;48.810;8.954;2023-02-28T01:59:25;6.20;;;3.60;;
2598;SDS011;1309;48.810;8.954;2023-02-28T02:01:56;5.20;;;2.87;;
2598;SDS011;1309;48.810;8.954;2023-02-28T02:04:26;4.73;;;2.80;;
2598;SDS011;1309;48.810;8.954;2023-02-28T02:07:02;5.70;;;2.90;;
2598;SDS011;1309;48.810;8.954;2023-02-28T02:09:31;6.17;;;3.60;;
2598;SDS011;1309;48.810;8.954;2023-02-28T02:12:02;4.00;;;2.40;;
2598;SDS011;1309;48.810;8.954;2023-02-28T02:14:37;4.00;;;2.53;;
2598;SDS011;1309;48.810;8.954;2023-02-28T02:17:23;4.13;;;2.87;;
2598;SDS011;1309;48.810;8.954;2023-02-28T02:20:06;5.80;;;2.60;;
2598;SDS011;1309;48.810;8.954;2023-02-28T02:23:07;4.40;;;3.10;;
2598;SDS011;1309;48.810;8.954;2023-02-28T02:25:58;6.20;;;3.30;;
2598;SDS011;1309;48.810;8.954;2023-02-28T02:28:49;5.10;;;3.53;;
2598;SDS011;1309;48.810;8.954;2023-02-28T02:37:14;6.80;;;3.17;;
2598;SDS011;1309;48.810;8.954;2023-02-28T02:39:48;3.50;;;2.73;;
2598;SDS011;1309;48.810;8.954;2023-02-28T02:42:20;3.37;;;2.53;;
2598;SDS011;1309;48.810;8.954;2023-02-28T02:44:55;4.80;;;3.73;;
2598;SDS011;1309;48.810;8.954;2023-02-28T02:47:26;5.17;;;4.10;;
2598;SDS011;1309;48.810;8.954;2023-02-28T02:49:59;6.20;;;3.50;;
2598;SDS011;1309;48.810;8.954;2023-02-28T02:52:33;5.33;;;3.40;;
2598;SDS011;1309;48.810;8.954;2023-02-28T02:55:05;5.00;;;2.90;;
2598;SDS011;1309;48.810;8.954;2023-02-28T02:57:40;4.10;;;3.10;;
2598;SDS011;1309;48.810;8.954;2023-02-28T03:00:20;4.07;;;3.17;;
2598;SDS011;1309;48.810;8.954;2023-02-28T03:02:50;4.73;;;3.30;;
2598;SDS011;1309;48.810;8.954;2023-02-28T03:05:21;3.30;;;2.97;;
2598;SDS011;1309;48.810;8.954;2023-02-28T03:07:52;8.37;;;3.60;;
2598;SDS011;1309;48.810;8.954;2023-02-28T03:10:25;6.70;;;3.10;;
2598;SDS011;1309;48.810;8.954;2023-02-28T03:12:59;3.90;;;2.73;;
2598;SDS011;1309;48.810;8.954;2023-02-28T03:15:54;7.13;;;4.20;;
2598;SDS011;1309;48.810;8.954;2023-02-28T03:18:28;3.83;;;2.80;;
2598;SDS011;1309;48.810;8.954;2023-02-28T03:21:06;4.73;;;3.20;;
2598;SDS011;1309;48.810;8.954;2023-02-28T03:23:45;3.53;;;2.80;;
2598;SDS011;1309;48.810;8.954;2023-02-28T03:26:23;4.03;;;3.00;;
2598;SDS011;1309;48.810;8.954;2023-02-28T03:28:55;5.07;;;3.20;;
2598;SDS011;1309;48.810;8.954;2023-02-28T03:31:31;5.27;;;3.57;;
2598;SDS011;1309;48.810;8.954;2023-02-28T03:34:05;7.77;;;3.77;;
2598;SDS011;1309;48.810;8.954;2023-02-28T03:36:41;6.23;;;3.70;;
2598;SDS011;1309;48.810;8.954;2023-02-28T03:39:13;6.27;;;4.20;;
2598;SDS011;1309;48.810;8.954;2023-02-28T03:41:45;7.03;;;3.47;;
2598;SDS011;1309;48.810;8.954;2023-02-28T03:44:17;4.10;;;3.30;;
2598;SDS011;1309;48.810;8.954;2023-02-28T03:46:49;4.40;;;2.93;;
2598;SDS011;1309;48.810;8.954;2023-02-28T03:49:23;4.90;;;3.33;;
2598;SDS011;1309;48.810;8.954;2023-02-28T03:52:05;6.77;;;3.03;;
2598;SDS011;1309;48.810;8.954;2023-02-28T03:54:35;4.73;;;3.00;;
2598;SDS011;1309;48.810;8.954;2023-02-28T03:57:10;5.43;;;3.77;;
2598;SDS011;1309;48.810;8.954;2023-02-28T03:59:41;5.40;;;3.10;;
2598;SDS011;1309;48.810;8.954;2023-02-28T04:02:10;7.13;;;4.13;;
2598;SDS011;1309;48.810;8.954;2023-02-28T04:04:40;5.03;;;3.30;;
2598;SDS011;1309;48.810;8.954;2023-02-28T04:07:16;7.43;;;4.93;;
2598;SDS011;1309;48.810;8.954;2023-02-28T04:09:47;4.57;;;3.30;;
2598;SDS011;1309;48.810;8.954;2023-02-28T04:12:16;9.90;;;4.03;;
2598;SDS011;1309;48.810;8.954;2023-02-28T04:14:44;7.47;;;3.50;;
2598;SDS011;1309;48.810;8.954;2023-02-28T04:17:14;3.53;;;2.83;;
2598;SDS011;1309;48.810;8.954;2023-02-28T04:19:42;6.23;;;3.80;;
2598;SDS011;1309;48.810;8.954;2023-02-28T04:22:10;10.90;;;4.17;;
2598;SDS011;1309;48.810;8.954;2023-02-28T04:24:44;6.20;;;3.43;;
2598;SDS011;1309;48.810;8.954;2023-02-28T04:27:12;7.10;;;4.43;;
2598;SDS011;1309;48.810;8.954;2023-02-28T04:29:44;6.80;;;3.33;;
2598;SDS011;1309;48.810;8.954;2023-02-28T04:32:14;5.93;;;3.20;;
2598;SDS011;1309;48.810;8.954;2023-02-28T04:34:42;6.53;;;3.27;;
2598;SDS011;1309;48.810;8.954;2023-02-28T04:37:11;5.43;;;3.70;;
2598;SDS011;1309;48.810;8.954;2023-02-28T04:39:42;9.13;;;3.80;;
2598;SDS011;1309;48.810;8.954;2023-02-28T04:42:15;6.87;;;3.97;;
2598;SDS011;1309;48.810;8.954;2023-02-28T04:44:43;6.37;;;3.93;;
2598;SDS011;1309;48.810;8.954;2023-02-28T04:47:12;6.90;;;3.70;;
2598;SDS011;1309;48.810;8.954;2023-02-28T04:49:40;9.17;;;5.27;;
2598;SDS011;1309;48.810;8.954;2023-02-28T04:52:11;7.30;;;3.93;;
2598;SDS011;1309;48.810;8.954;2023-02-28T04:54:39;5.23;;;4.13;;
2598;SDS011;1309;48.810;8.954;2023-02-28T04:57:07;4.40;;;3.63;;
2598;SDS011;1309;48.810;8.954;2023-02-28T04:59:38;4.10;;;2.73;;
2598;SDS011;1309;48.810;8.954;2023-02-28T05:02:06;11.23;;;3.60;;
2598;SDS011;1309;48.810;8.954;2023-02-28T05:04:37;7.63;;;3.60;;
2598;SDS011;1309;48.810;8.954;2023-02-28T05:07:06;5.00;;;3.83;;
2598;SDS011;1309;48.810;8.954;2023-02-28T05:09:34;4.90;;;3.40;;
2598;SDS011;1309;48.810;8.954;2023-02-28T05:12:05;5.27;;;3.23;;
2598;SDS011;1309;48.810;8.954;2023-02-28T05:14:37;7.10;;;4.30;;
2598;SDS011;1309;48.810;8.954;2023-02-28T05:17:08;6.53;;;4.20;;
2598;SDS011;1309;48.810;8.954;2023-02-28T05:19:50;8.77;;;4.40;;
2598;SDS011;1309;48.810;8.954;2023-02-28T05:22:17;6.53;;;4.17;;
2598;SDS011;1309;48.810;8.954;2023-02-28T05:24:46;4.70;;;3.83;;
2598;SDS011;1309;48.810;8.954;2023-02-28T05:27:16;7.37;;;4.03;;
2598;SDS011;1309;48.810;8.954;2023-02-28T05:29:46;5.33;;;3.03;;
2598;SDS011;1309;48.810;8.954;2023-02-28T05:32:14;9.60;;;4.60;;
2598;SDS011;1309;48.810;8.954;2023-02-28T05:34:43;6.37;;;4.17;;
2598;SDS011;1309;48.810;8.954;2023-02-28T05:37:12;7.67;;;3.97;;
2598;SDS011;1309;48.810;8.954;2023-02-28T05:39:41;7.20;;;3.40;;
2598;SDS011;1309;48.810;8.954;2023-02-28T05:42:10;6.40;;;4.20;;
2598;SDS011;1309;48.810;8.954;2023-02-28T05:44:40;5.17;;;2.40;;
2598;SDS011;1309;48.810;8.954;2023-02-28T05:47:09;12.10;;;6.30;;
2598;SDS011;1309;48.810;8.954;2023-02-28T05:49:39;13.37;;;4.07;;
2598;SDS011;1309;48.810;8.954;2023-02-28T05:52:07;7.53;;;4.63;;
2598;SDS011;1309;48.810;8.954;2023-02-28T05:54:35;6.77;;;4.53;;
2598;SDS011;1309;48.810;8.954;2023-02-28T05:57:03;10.13;;;4.40;;
2598;SDS011;1309;48.810;8.954;2023-02-28T05:59:48;6.17;;;3.27;;
2598;SDS011;1309;48.810;8.954;2023-02-28T06:02:22;7.23;;;3.73;;
2598;SDS011;1309;48.810;8.954;2023-02-28T06:04:50;6.73;;;3.77;;
2598;SDS011;1309;48.810;8.954;2023-02-28T06:07:22;5.77;;;3.93;;
2598;SDS011;1309;48.810;8.954;2023-02-28T06:09:50;12.43;;;6.63;;
2598;SDS011;1309;48.810;8.954;2023-02-28T06:12:23;5.80;;;3.77;;
2598;SDS011;1309;48.810;8.954;2023-02-28T06:14:51;13.87;;;4.93;;
2598;SDS011;1309;48.810;8.954;2023-02-28T06:17:19;6.83;;;4.40;;
2598;SDS011;1309;48.810;8.954;2023-02-28T06:19:49;8.80;;;3.90;;
2598;SDS011;1309;48.810;8.954;2023-02-28T06:22:17;10.43;;;4.33;;
2598;SDS011;1309;48.810;8.954;2023-02-28T06:24:45;13.00;;;5.13;;
2598;SDS011;1309;48.810;8.954;2023-02-28T06:27:13;7.60;;;4.27;;
2598;SDS011;1309;48.810;8.954;2023-02-28T06:29:46;5.90;;;4.20;;
2598;SDS011;1309;48.810;8.954;2023-02-28T06:32:14;5.43;;;3.80;;
2598;SDS011;1309;48.810;8.954;2023-02-28T06:34:43;5.97;;;4.83;;
2598;SDS011;1309;48.810;8.954;2023-02-28T06:37:12;9.10;;;5.37;;
2598;SDS011;1309;48.810;8.954;2023-02-28T06:39:40;5.43;;;3.90;;
2598;SDS011;1309;48.810;8.954;2023-02-28T06:42:08;9.13;;;4.33;;
2598;SDS011;1309;48.810;8.954;2023-02-28T06:44:36;6.57;;;4.40;;
2598;SDS011;1309;48.810;8.954;2023-02-28T06:47:06;9.30;;;4.43;;
2598;SDS011;1309;48.810;8.954;2023-02-28T06:49:35;8.90;;;3.63;;
2598;SDS011;1309;48.810;8.954;2023-02-28T06:54:56;7.13;;;4.60;;
2598;SDS011;1309;48.810;8.954;2023-02-28T06:57:27;5.70;;;3.40;;
2598;SDS011;1309;48.810;8.954;2023-02-28T06:59:57;5.97;;;4.00;;
2598;SDS011;1309;48.810;8.954;2023-02-28T07:02:26;9.50;;;5.77;;
2598;SDS011;1309;48.810;8.954;2023-02-28T07:05:00;11.73;;;5.93;;
2598;SDS011;1309;48.810;8.954;2023-02-28T07:07:33;6.47;;;3.90;;
2598;SDS011;1309;48.810;8.954;2023-02-28T07:10:02;11.17;;;5.20;;
2598;SDS011;1309;48.810;8.954;2023-02-28T07:12:32;11.23;;;5.57;;
2598;SDS011;1309;48.810;8.954;2023-02-28T07:15:00;10.23;;;6.20;;
2598;SDS011;1309;48.810;8.954;2023-02-28T07:17:28;10.33;;;4.37;;
2598;SDS011;1309;48.810;8.954;2023-02-28T07:19:56;14.13;;;4.53;;
2598;SDS011;1309;48.810;8.954;2023-02-28T07:22:24;9.23;;;4.50;;
2598;SDS011;1309;48.810;8.954;2023-02-28T07:24:54;8.53;;;4.67;;
2598;SDS011;1309;48.810;8.954;2023-02-28T07:27:22;7.97;;;4.40;;
2598;SDS011;1309;48.810;8.954;2023-02-28T07:29:52;10.27;;;5.10;;
2598;SDS011;1309;48.810;8.954;2023-02-28T07:32:21;7.80;;;5.20;;
2598;SDS011;1309;48.810;8.954;2023-02-28T07:34:49;10.00;;;5.57;;
2598;SDS011;1309;48.810;8.954;2023-02-28T07:37:17;6.40;;;4.00;;
2598;SDS011;1309;48.810;8.954;2023-02-28T07:39:45;8.80;;;5.30;;
2598;SDS011;1309;48.810;8.954;2023-02-28T07:42:17;10.43;;;4.47;;
2598;SDS011;1309;48.810;8.954;2023-02-28T07:45:10;9.40;;;5.47;;
2598;SDS011;1309;48.810;8.954;2023-02-28T07:47:38;9.40;;;5.00;;
2598;SDS011;1309;48.810;8.954;2023-02-28T07:50:07;8.03;;;4.70;;
2598;SDS011;1309;48.810;8.954;2023-02-28T07:52:36;9.33;;;4.20;;
2598;SDS011;1309;48.810;8.954;2023-02-28T07:55:06;7.30;;;4.67;;
2598;SDS011;1309;48.810;8.954;2023-02-28T07:57:36;9.20;;;5.17;;
2598;SDS011;1309;48.810;8.954;2023-02-28T08:00:06;9.77;;;4.93;;
2598;SDS011;1309;48.810;8.954;2023-02-28T08:02:35;7.63;;;5.20;;
2598;SDS011;1309;48.810;8.954;2023-02-28T08:05:04;9.73;;;4.90;;
2598;SDS011;1309;48.810;8.954;2023-02-28T08:07:33;8.90;;;4.63;;
2598;SDS011;1309;48.810;8.954;2023-02-28T08:10:01;9.60;;;5.40;;
2598;SDS011;1309;48.810;8.954;2023-02-28T08:12:29;5.37;;;4.87;;
2598;SDS011;1309;48.810;8.954;2023-02-28T08:14:58;10.70;;;5.87;;
2598;SDS011;1309;48.810;8.954;2023-02-28T08:17:27;12.10;;;5.63;;
2598;SDS011;1309;48.810;8.954;2023-02-28T08:19:55;5.83;;;4.20;;
2598;SDS011;1309;48.810;8.954;2023-02-28T08:22:23;9.33;;;5.00;;
2598;SDS011;1309;48.810;8.954;2023-02-28T08:24:52;11.43;;;6.87;;
2598;SDS011;1309;48.810;8.954;2023-02-28T08:27:23;9.03;;;4.53;;
2598;SDS011;1309;48.810;8.954;2023-02-28T08:29:51;12.30;;;4.63;;
2598;SDS011;1309;48.810;8.954;2023-02-28T08:32:20;15.50;;;5.77;;
2598;SDS011;1309;48.810;8.954;2023-02-28T08:34:55;11.30;;;5.00;;
2598;SDS011;1309;48.810;8.954;2023-02-28T08:37:25;10.23;;;5.33;;
2598;SDS011;1309;48.810;8.954;2023-02-28T08:39:53;11.17;;;6.63;;
2598;SDS011;1309;48.810;8.954;2023-02-28T08:42:22;8.10;;;4.53;;
2598;SDS011;1309;48.810;8.954;2023-02-28T08:44:50;8.27;;;5.10;;
2598;SDS011;1309;48.810;8.954;2023-02-28T08:47:18;10.03;;;5.30;;
2598;SDS011;1309;48.810;8.954;2023-02-28T08:49:49;12.77;;;6.73;;
2598;SDS011;1309;48.810;8.954;2023-02-28T08:52:17;11.13;;;5.43;;
2598;SDS011;1309;48.810;8.954;2023-02-28T08:54:56;10.40;;;6.47;;
2598;SDS011;1309;48.810;8.954;2023-02-28T08:57:24;10.20;;;5.03;;
2598;SDS011;1309;48.810;8.954;2023-02-28T08:59:53;9.23;;;5.67;;
2598;SDS011;1309;48.810;8.954;2023-02-28T09:02:21;6.70;;;5.03;;
2598;SDS011;1309;48.810;8.954;2023-02-28T09:04:51;11.47;;;5.50;;
2598;SDS011;1309;48.810;8.954;2023-02-28T09:07:19;5.30;;;3.93;;
2598;SDS011;1309;48.810;8.954;2023-02-28T09:09:47;7.40;;;4.90;;
2598;SDS011;1309;48.810;8.954;2023-02-28T09:12:34;9.50;;;5.30;;
2598;SDS011;1309;48.810;8.954;2023-02-28T09:15:06;7.83;;;5.17;;
2598;SDS011;1309;48.810;8.954;2023-02-28T09:17:37;13.17;;;5.83;;
2598;SDS011;1309;48.810;8.954;2023-02-28T09:20:07;6.70;;;4.33;;
2598;SDS011;1309;48.810;8.954;2023-02-28T09:22:44;12.00;;;6.37;;
2598;SDS011;1309;48.810;8.954;2023-02-28T09:25:13;13.83;;;6.67;;
2598;SDS011;1309;48.810;8.954;2023-02-28T09:27:41;12.30;;;6.87;;
2598;SDS011;1309;48.810;8.954;2023-02-28T09:30:09;8.20;;;5.27;;
2598;SDS011;1309;48.810;8.954;2023-02-28T09:32:39;9.87;;;6.00;;
2598;SDS011;1309;48.810;8.954;2023-02-28T09:35:08;12.07;;;6.17;;
2598;SDS011;1309;48.810;8.954;2023-02-28T09:37:42;10.33;;;6.90;;
2598;SDS011;1309;48.810;8.954;2023-02-28T09:40:10;10.50;;;7.03;;
2598;SDS011;1309;48.810;8.954;2023-02-28T09:42:44;9.80;;;5.93;;
2598;SDS011;1309;48.810;8.954;2023-02-28T09:45:16;12.00;;;6.00;;
2598;SDS011;1309;48.810;8.954;2023-02-28T09:47:50;10.00;;;6.60;;
2598;SDS011;1309;48.810;8.954;2023-02-28T09:50:28;9.20;;;6.40;;
2598;SDS011;1309;48.810;8.954;2023-02-28T09:52:59;39.17;;;6.30;;
2598;SDS011;1309;48.810;8.954;2023-02-28T09:55:31;10.40;;;6.47;;
2598;SDS011;1309;48.810;8.954;2023-02-28T09:58:14;13.47;;;6.07;;
2598;SDS011;1309;48.810;8.954;2023-02-28T10:00:54;14.13;;;7.17;;
2598;SDS011;1309;48.810;8.954;2023-02-28T10:03:27;9.50;;;5.83;;
2598;SDS011;1309;48.810;8.954;2023-02-28T10:06:04;9.43;;;5.70;;
2598;SDS011;1309;48.810;8.954;2023-02-28T10:08:39;9.83;;;5.70;;
2598;SDS011;1309;48.810;8.954;2023-02-28T10:11:12;15.63;;;7.40;;
2598;SDS011;1309;48.810;8.954;2023-02-28T10:13:46;11.30;;;8.10;;
2598;SDS011;1309;48.810;8.954;2023-02-28T10:16:20;11.63;;;5.80;;
2598;SDS011;1309;48.810;8.954;2023-02-28T10:18:57;39.47;;;6.73;;
2598;SDS011;1309;48.810;8.954;2023-02-28T10:21:33;26.17;;;9.13;;
2598;SDS011;1309;48.810;8.954;2023-02-28T10:24:04;13.57;;;7.37;;
2598;SDS011;1309;48.810;8.954;2023-02-28T10:26:42;10.70;;;6.60;;
2598;SDS011;1309;48.810;8.954;2023-02-28T10:29:11;14.23;;;5.60;;
2598;SDS011;1309;48.810;8.954;2023-02-28T10:31:40;33.63;;;9.33;;
2598;SDS011;1309;48.810;8.954;2023-02-28T10:34:11;14.83;;;6.77;;
2598;SDS011;1309;48.810;8.954;2023-02-28T10:36:42;11.57;;;5.97;;
2598;SDS011;1309;48.810;8.954;2023-02-28T10:39:33;14.00;;;7.30;;
2598;SDS011;1309;48.810;8.954;2023-02-28T10:42:05;13.40;;;7.13;;
2598;SDS011;1309;48.810;8.954;2023-02-28T10:44:46;13.97;;;6.37;;
2598;SDS011;1309;48.810;8.954;2023-02-28T10:47:15;13.57;;;7.03;;
2598;SDS011;1309;48.810;8.954;2023-02-28T10:49:48;9.17;;;5.80;;
2598;SDS011;1309;48.810;8.954;2023-02-28T10:55:15;16.77;;;7.97;;
2598;SDS011;1309;48.810;8.954;2023-02-28T10:57:49;15.97;;;8.23;;
2598;SDS011;1309;48.810;8.954;2023-02-28T11:00:19;16.63;;;7.87;;
2598;SDS011;1309;48.810;8.954;2023-02-28T11:02:52;14.23;;;7.77;;
2598;SDS011;1309;48.810;8.954;2023-02-28T11:05:27;9.80;;;6.43;;
2598;SDS011;1309;48.810;8.954;2023-02-28T11:08:05;20.47;;;8.43;;
2598;SDS011;1309;48.810;8.954;2023-02-28T11:10:37;14.57;;;8.67;;
2598;SDS011;1309;48.810;8.954;2023-02-28T11:13:06;11.97;;;6.97;;
2598;SDS011;1309;48.810;8.954;2023-02-28T11:15:37;12.10;;;6.53;;
2598;SDS011;1309;48.810;8.954;2023-02-28T11:18:14;12.03;;;8.23;;
2598;SDS011;1309;48.810;8.954;2023-02-28T11:20:48;17.03;;;7.77;;
2598;SDS011;1309;48.810;8.954;2023-02-28T11:23:19;13.00;;;7.90;;
2598;SDS011;1309;48.810;8.954;2023-02-28T11:25:48;11.07;;;7.23;;
2598;SDS011;1309;48.810;8.954;2023-02-28T11:28:24;13.63;;;8.23;;
2598;SDS011;1309;48.810;8.954;2023-02-28T11:31:02;10.77;;;6.97;;
2598;SDS011;1309;48.810;8.954;2023-02-28T11:33:37;18.80;;;9.17;;
2598;SDS011;1309;48.810;8.954;2023-02-28T11:36:10;16.17;;;8.10;;
2598;SDS011;1309;48.810;8.954;2023-02-28T11:38:43;7.67;;;5.27;;
2598;SDS011;1309;48.810;8.954;2023-02-28T11:41:16;13.63;;;7.17;;
2598;SDS011;1309;48.810;8.954;2023-02-28T11:43:53;15.10;;;8.37;;
2598;SDS011;1309;48.810;8.954;2023-02-28T11:46:30;26.90;;;8.60;;
2598;SDS011;1309;48.810;8.954;2023-02-28T11:49:04;13.80;;;8.00;;
2598;SDS011;1309;48.810;8.954;2023-02-28T11:51:42;12.70;;;7.30;;
2598;SDS011;1309;48.810;8.954;2023-02-28T11:54:28;16.60;;;8.33;;
2598;SDS011;1309;48.810;8.954;2023-02-28T11:57:11;16.40;;;9.23;;
2598;SDS011;1309;48.810;8.954;2023-02-28T11:59:51;15.87;;;8.40;;
2598;SDS011;1309;48.810;8.954;2023-02-28T12:02:26;9.70;;;6.73;;
2598;SDS011;1309;48.810;8.954;2023-02-28T12:05:05;16.80;;;8.63;;
2598;SDS011;1309;48.810;8.954;2023-02-28T12:07:44;13.67;;;7.33;;
2598;SDS011;1309;48.810;8.954;2023-02-28T12:12:55;12.20;;;6.50;;
2598;SDS011;1309;48.810;8.954;2023-02-28T12:15:38;14.00;;;7.73;;
2598;SDS011;1309;48.810;8.954;2023-02-28T12:18:27;12.30;;;8.13;;
2598;SDS011;1309;48.810;8.954;2023-02-28T12:21:04;14.97;;;8.00;;
2598;SDS011;1309;48.810;8.954;2023-02-28T12:26:40;12.97;;;8.67;;
2598;SDS011;1309;48.810;8.954;2023-02-28T12:29:10;13.13;;;8.60;;
2598;SDS011;1309;48.810;8.954;2023-02-28T12:31:44;15.40;;;7.53;;
2598;SDS011;1309;48.810;8.954;2023-02-28T12:34:19;13.70;;;8.40;;
2598;SDS011;1309;48.810;8.954;2023-02-28T12:36:49;11.07;;;7.43;;
2598;SDS011;1309;48.810;8.954;2023-02-28T12:39:23;12.63;;;8.20;;
2598;SDS011;1309;48.810;8.954;2023-02-28T12:41:58;12.97;;;7.50;;
2598;SDS011;1309;48.810;8.954;2023-02-28T12:44:30;13.73;;;7.50;;
2598;SDS011;1309;48.810;8.954;2023-02-28T12:47:01;13.20;;;8.20;;
2598;SDS011;1309;48.810;8.954;2023-02-28T12:49:33;13.97;;;7.97;;
2598;SDS011;1309;48.810;8.954;2023-02-28T12:52:03;10.30;;;7.47;;
2598;SDS011;1309;48.810;8.954;2023-02-28T12:54:33;15.83;;;7.37;;
2598;SDS011;1309;48.810;8.954;2023-02-28T12:57:08;15.17;;;7.37;;
2598;SDS011;1309;48.810;8.954;2023-02-28T12:59:45;20.70;;;8.97;;
2598;SDS011;1309;48.810;8.954;2023-02-28T13:05:32;11.47;;;7.37;;
2598;SDS011;1309;48.810;8.954;2023-02-28T13:08:23;12.37;;;7.80;;
2598;SDS011;1309;48.810;8.954;2023-02-28T13:11:07;11.80;;;7.20;;
2598;SDS011;1309;48.810;8.954;2023-02-28T13:13:58;15.37;;;8.23;;
2598;SDS011;1309;48.810;8.954;2023-02-28T13:16:27;15.60;;;9.70;;
2598;SDS011;1309;48.810;8.954;2023-02-28T13:19:10;11.97;;;7.53;;
2598;SDS011;1309;48.810;8.954;2023-02-28T13:21:44;13.83;;;7.83;;
2598;SDS011;1309;48.810;8.954;2023-02-28T13:36:10;13.37;;;8.60;;
2598;SDS011;1309;48.810;8.954;2023-02-28T13:38:53;11.77;;;7.53;;
2598;SDS011;1309;48.810;8.954;2023-02-28T13:44:17;11.57;;;8.50;;
2598;SDS011;1309;48.810;8.954;2023-02-28T13:49:53;15.77;;;7.60;;
2598;SDS011;1309;48.810;8.954;2023-02-28T13:52:22;14.27;;;8.10;;
2598;SDS011;1309;48.810;8.954;2023-02-28T13:54:56;12.77;;;7.27;;
2598;SDS011;1309;48.810;8.954;2023-02-28T13:57:45;10.30;;;7.60;;
2598;SDS011;1309;48.810;8.954;2023-02-28T14:00:27;12.70;;;7.67;;
2598;SDS011;1309;48.810;8.954;2023-02-28T14:06:10;14.90;;;8.17;;
2598;SDS011;1309;48.810;8.954;2023-02-28T14:08:52;13.73;;;7.60;;
2598;SDS011;1309;48.810;8.954;2023-02-28T14:11:26;10.70;;;7.00;;
2598;SDS011;1309;48.810;8.954;2023-02-28T14:14:05;12.37;;;7.50;;
2598;SDS011;1309;48.810;8.954;2023-02-28T14:16:38;11.80;;;7.53;;
2598;SDS011;1309;48.810;8.954;2023-02-28T14:19:14;10.57;;;7.33;;
2598;SDS011;1309;48.810;8.954;2023-02-28T14:21:59;13.83;;;7.47;;
2598;SDS011;1309;48.810;8.954;2023-02-28T14:24:42;16.53;;;8.07;;
2598;SDS011;1309;48.810;8.954;2023-02-28T14:27:29;14.40;;;8.20;;
2598;SDS011;1309;48.810;8.954;2023-02-28T14:33:19;11.47;;;7.67;;
2598;SDS011;1309;48.810;8.954;2023-02-28T14:35:53;11.53;;;8.30;;
2598;SDS011;1309;48.810;8.954;2023-02-28T14:38:42;11.47;;;8.30;;
2598;SDS011;1309;48.810;8.954;2023-02-28T14:41:15;9.93;;;7.60;;
2598;SDS011;1309;48.810;8.954;2023-02-28T14:43:53;15.57;;;7.63;;
2598;SDS011;1309;48.810;8.954;2023-02-28T14:46:23;11.50;;;8.63;;
2598;SDS011;1309;48.810;8.954;2023-02-28T14:48:54;13.10;;;7.87;;
2598;SDS011;1309;48.810;8.954;2023-02-28T14:51:23;12.93;;;8.40;;
2598;SDS011;1309;48.810;8.954;2023-02-28T14:53:57;12.73;;;7.10;;
2598;SDS011;1309;48.810;8.954;2023-02-28T14:56:28;16.60;;;7.90;;
2598;SDS011;1309;48.810;8.954;2023-02-28T14:59:03;13.50;;;7.40;;
2598;SDS011;1309;48.810;8.954;2023-02-28T15:01:32;13.40;;;8.70;;
2598;SDS011;1309;48.810;8.954;2023-02-28T15:04:01;11.43;;;7.10;;
2598;SDS011;1309;48.810;8.954;2023-02-28T15:06:30;11.43;;;8.13;;
2598;SDS011;1309;48.810;8.954;2023-02-28T15:09:19;13.57;;;7.70;;
2598;SDS011;1309;48.810;8.954;2023-02-28T15:11:55;12.50;;;6.57;;
2598;SDS011;1309;48.810;8.954;2023-02-28T15:14:24;15.20;;;8.10;;
2598;SDS011;1309;48.810;8.954;2023-02-28T15:16:56;13.80;;;7.90;;
2598;SDS011;1309;48.810;8.954;2023-02-28T15:19:27;11.60;;;7.77;;
2598;SDS011;1309;48.810;8.954;2023-02-28T15:22:00;12.87;;;7.80;;
2598;SDS011;1309;48.810;8.954;2023-02-28T15:24:35;13.80;;;8.30;;
2598;SDS011;1309;48.810;8.954;2023-02-28T15:27:07;13.10;;;6.73;;
2598;SDS011;1309;48.810;8.954;2023-02-28T15:29:45;15.30;;;8.17;;
2598;SDS011;1309;48.810;8.954;2023-02-28T15:32:23;13.53;;;7.33;;
2598;SDS011;1309;48.810;8.954;2023-02-28T15:34:53;11.83;;;7.60;;
2598;SDS011;1309;48.810;8.954;2023-02-28T15:37:28;14.23;;;8.40;;
2598;SDS011;1309;48.810;8.954;2023-02-28T15:40:11;14.93;;;7.13;;
2598;SDS011;1309;48.810;8.954;2023-02-28T15:42:41;11.83;;;6.90;;
2598;SDS011;1309;48.810;8.954;2023-02-28T15:45:27;13.00;;;7.80;;
2598;SDS011;1309;48.810;8.954;2023-02-28T15:48:12;15.33;;;8.80;;
2598;SDS011;1309;48.810;8.954;2023-02-28T15:50:44;13.83;;;8.40;;
2598;SDS011;1309;48.810;8.954;2023-02-28T15:53:13;11.97;;;7.90;;
2598;SDS011;1309;48.810;8.954;2023-02-28T15:55:44;18.43;;;9.00;;
2598;SDS011;1309;48.810;8.954;2023-02-28T15:58:12;15.93;;;8.53;;
2598;SDS011;1309;48.810;8.954;2023-02-28T16:01:08;13.17;;;7.67;;
2598;SDS011;1309;48.810;8.954;2023-02-28T16:03:51;14.60;;;7.40;;
2598;SDS011;1309;48.810;8.954;2023-02-28T16:06:31;11.23;;;8.00;;
2598;SDS011;1309;48.810;8.954;2023-02-28T16:09:01;13.80;;;7.40;;
2598;SDS011;1309;48.810;8.954;2023-02-28T16:11:41;13.60;;;7.87;;
2598;SDS011;1309;48.810;8.954;2023-02-28T16:14:15;15.77;;;8.20;;
2598;SDS011;1309;48.810;8.954;2023-02-28T16:16:45;12.40;;;7.30;;
2598;SDS011;1309;48.810;8.954;2023-02-28T16:19:26;14.33;;;7.53;;
2598;SDS011;1309;48.810;8.954;2023-02-28T16:21:59;15.77;;;8.47;;
2598;SDS011;1309;48.810;8.954;2023-02-28T16:24:29;17.50;;;8.47;;
2598;SDS011;1309;48.810;8.954;2023-02-28T16:26:59;11.80;;;7.50;;
2598;SDS011;1309;48.810;8.954;2023-02-28T16:29:28;14.70;;;8.60;;